Time;durP1;ratioP1;P1;durP2;ratioP2;P2;SDS_P1;SDS_P2;PMS_P1;PMS_P2;Temp;Humidity;BMP_temperature;BMP_pressure;BME280_temperature;BME280_humidity;BME280_pressure;Samples;Min_cycle;Max_cycle;Signal;HPM_P1;HPM_P2
2023/01/20 00:01:08;;;;;;;48.90;22.10;;;0.90;99.90;;;;;;4989981;28;20037;-49
2023/01/20 00:03:35;;;;;;;45.10;21.80;;;1.00;99.90;;;;;;4989948;28;20480;-49
2023/01/20 00:06:01;;;;;;;49.87;23.13;;;1.00;99.90;;;;;;4989847;28;20034;-51
2023/01/20 00:08:26;;;;;;;51.20;24.27;;;1.00;99.90;;;;;;4988959;28;20042;-48
2023/01/20 00:10:53;;;;;;;51.63;23.40;;;1.00;99.90;;;;;;4990072;28;20030;-51
2023/01/20 00:13:18;;;;;;;48.37;22.70;;;1.00;99.90;;;;;;4993075;28;20042;-49
2023/01/20 00:15:44;;;;;;;49.33;23.03;;;1.10;99.90;;;;;;4992801;28;20035;-50
2023/01/20 00:18:10;;;;;;;44.93;22.57;;;1.10;99.90;;;;;;4993408;28;20487;-51
2023/01/20 00:20:36;;;;;;;46.57;21.73;;;1.10;99.90;;;;;;4992210;28;20038;-47
2023/01/20 00:23:02;;;;;;;51.13;21.97;;;1.10;99.90;;;;;;4993106;28;20030;-50
2023/01/20 00:25:27;;;;;;;46.33;22.07;;;1.20;99.90;;;;;;4992508;28;20040;-50
2023/01/20 00:27:53;;;;;;;49.57;22.83;;;1.10;99.90;;;;;;4992930;28;20416;-48
2023/01/20 00:30:19;;;;;;;50.53;22.40;;;1.20;99.90;;;;;;4992470;28;20037;-53
2023/01/20 00:32:45;;;;;;;46.13;20.97;;;1.20;99.90;;;;;;4993491;28;20502;-51
2023/01/20 00:35:12;;;;;;;46.13;22.10;;;1.20;99.90;;;;;;4993407;28;20027;-53
2023/01/20 00:37:38;;;;;;;46.40;20.80;;;1.20;99.90;;;;;;4992860;28;20041;-53
2023/01/20 00:40:05;;;;;;;49.87;22.63;;;1.20;99.90;;;;;;4993237;28;20486;-49
2023/01/20 00:42:31;;;;;;;46.30;21.37;;;1.20;99.90;;;;;;4993495;28;20038;-51
2023/01/20 00:44:57;;;;;;;47.50;22.17;;;1.20;99.90;;;;;;4992583;28;20451;-49
2023/01/20 00:47:23;;;;;;;44.47;20.87;;;1.20;99.90;;;;;;4992872;28;20034;-51
2023/01/20 00:49:49;;;;;;;49.43;21.80;;;1.20;99.90;;;;;;4992606;28;20419;-51
2023/01/20 00:52:17;;;;;;;46.07;21.07;;;1.20;99.90;;;;;;4992609;28;20045;-50
2023/01/20 00:54:44;;;;;;;45.80;21.67;;;1.20;99.90;;;;;;4992233;28;20041;-50
2023/01/20 00:57:10;;;;;;;49.40;20.93;;;1.20;99.90;;;;;;4992629;28;20037;-49
2023/01/20 00:59:36;;;;;;;49.47;21.27;;;1.10;99.90;;;;;;4992147;28;20026;-49
2023/01/20 01:02:02;;;;;;;51.80;22.63;;;1.10;99.90;;;;;;4992470;28;20101;-50
2023/01/20 01:04:29;;;;;;;48.67;22.53;;;1.20;99.90;;;;;;4992853;28;20030;-54
2023/01/20 01:06:54;;;;;;;52.13;22.50;;;1.20;99.90;;;;;;4992748;28;20030;-51
2023/01/20 01:09:20;;;;;;;51.40;22.97;;;1.20;99.90;;;;;;4992364;28;20251;-50
2023/01/20 01:11:49;;;;;;;51.43;22.97;;;1.20;99.90;;;;;;4992806;28;20062;-50
2023/01/20 01:14:15;;;;;;;58.30;23.27;;;1.20;99.90;;;;;;4991568;28;20125;-51
2023/01/20 01:16:41;;;;;;;57.30;22.47;;;1.20;99.90;;;;;;4991328;28;20030;-52
2023/01/20 01:19:07;;;;;;;55.10;22.33;;;1.20;99.90;;;;;;4991950;28;20030;-52
2023/01/20 01:21:33;;;;;;;53.07;23.00;;;1.20;99.90;;;;;;4991724;28;20029;-49
2023/01/20 01:23:58;;;;;;;54.13;23.33;;;1.30;99.90;;;;;;4991457;28;20042;-49
2023/01/20 01:26:24;;;;;;;53.23;23.17;;;1.30;99.90;;;;;;4991718;28;20084;-52
2023/01/20 01:28:50;;;;;;;53.63;22.70;;;1.30;99.90;;;;;;4991233;28;20700;-50
2023/01/20 01:31:17;;;;;;;52.13;22.67;;;1.30;99.90;;;;;;4991813;28;20026;-52
2023/01/20 01:33:44;;;;;;;54.83;23.77;;;1.30;99.90;;;;;;4991503;28;20066;-50
2023/01/20 01:36:14;;;;;;;47.40;22.07;;;1.30;99.90;;;;;;4992521;28;20030;-52
2023/01/20 01:38:39;;;;;;;51.20;24.03;;;1.30;99.90;;;;;;4991628;28;20034;-49
2023/01/20 01:41:05;;;;;;;52.80;22.83;;;1.40;99.90;;;;;;4992411;28;20033;-53
2023/01/20 01:43:33;;;;;;;53.90;22.37;;;1.40;99.90;;;;;;4991398;28;20505;-53
2023/01/20 01:45:59;;;;;;;54.40;24.47;;;1.30;99.90;;;;;;4992188;28;20117;-52
2023/01/20 01:48:34;;;;;;;55.97;23.90;;;1.30;99.90;;;;;;4990166;28;20184;-52
2023/01/20 01:51:07;;;;;;;57.17;24.57;;;1.30;99.90;;;;;;4991037;28;20483;-51
2023/01/20 01:53:41;;;;;;;61.03;25.87;;;1.30;99.90;;;;;;4991129;28;20040;-54
2023/01/20 01:56:08;;;;;;;57.43;24.27;;;1.40;99.90;;;;;;4991010;28;20041;-52
2023/01/20 01:58:37;;;;;;;59.50;25.07;;;1.30;99.90;;;;;;4991512;28;20165;-55
2023/01/20 02:01:03;;;;;;;57.08;25.23;;;1.30;99.90;;;;;;4990777;28;20399;-53
2023/01/20 02:03:39;;;;;;;61.50;25.50;;;1.30;99.90;;;;;;4991207;28;20034;-49
2023/01/20 02:06:06;;;;;;;58.70;25.70;;;1.30;99.90;;;;;;4991357;28;20030;-53
2023/01/20 02:08:32;;;;;;;62.13;27.43;;;1.30;99.90;;;;;;4991111;28;20038;-54
2023/01/20 02:10:58;;;;;;;65.27;28.10;;;1.30;99.90;;;;;;4991470;28;20372;-50
2023/01/20 02:13:24;;;;;;;63.30;27.67;;;1.30;99.90;;;;;;4990832;28;20085;-51
2023/01/20 02:16:07;;;;;;;62.43;26.03;;;1.40;99.90;;;;;;4990401;28;20042;-48
2023/01/20 02:19:10;;;;;;;62.70;28.20;;;1.40;99.90;;;;;;4990166;28;20026;-50
2023/01/20 02:21:57;;;;;;;60.33;26.77;;;1.30;99.90;;;;;;4990663;28;20031;-48
2023/01/20 02:24:44;;;;;;;62.23;27.27;;;1.40;99.90;;;;;;4991198;28;20065;-49
2023/01/20 02:27:22;;;;;;;61.90;26.60;;;1.40;99.90;;;;;;4990922;28;20034;-50
2023/01/20 02:30:25;;;;;;;66.33;27.80;;;1.40;99.90;;;;;;4991047;28;20045;-49
2023/01/20 02:32:57;;;;;;;65.00;26.63;;;1.30;99.90;;;;;;4990719;28;20069;-50
2023/01/20 02:35:36;;;;;;;64.57;26.87;;;1.30;99.90;;;;;;4990150;28;20037;-50
2023/01/20 02:38:45;;;;;;;60.13;27.05;;;1.30;99.90;;;;;;4990757;28;20119;-47
2023/01/20 02:41:40;;;;;;;65.43;27.20;;;1.30;99.90;;;;;;4991298;28;20439;-51
2023/01/20 02:44:37;;;;;;;69.03;28.60;;;1.30;99.90;;;;;;4991340;28;20042;-49
2023/01/20 02:47:06;;;;;;;63.37;27.67;;;1.30;99.90;;;;;;4990918;28;20041;-50
2023/01/20 02:49:57;;;;;;;65.80;27.80;;;1.30;99.90;;;;;;4991560;28;20116;-49
2023/01/20 02:52:31;;;;;;;55.30;24.40;;;1.20;99.90;;;;;;4990590;28;20044;-52
2023/01/20 02:55:03;;;;;;;56.33;23.17;;;1.30;99.90;;;;;;4990620;28;20050;-53
2023/01/20 02:57:42;;;;;;;52.37;23.03;;;1.30;99.90;;;;;;4989922;28;20432;-50
2023/01/20 03:00:29;;;;;;;50.13;21.98;;;1.30;99.90;;;;;;4990965;28;20105;-49
2023/01/20 03:02:56;;;;;;;54.57;21.77;;;1.30;99.90;;;;;;4990908;28;20057;-52
2023/01/20 03:05:32;;;;;;;52.30;22.73;;;1.30;99.90;;;;;;4990289;28;20081;-50
2023/01/20 03:08:02;;;;;;;54.70;22.90;;;1.30;99.90;;;;;;4990984;28;20114;-49
2023/01/20 03:10:32;;;;;;;54.53;23.00;;;1.30;99.90;;;;;;4990851;28;20042;-49
2023/01/20 03:13:19;;;;;;;53.88;23.48;;;1.20;99.90;;;;;;4990954;28;20402;-50
2023/01/20 03:16:01;;;;;;;57.70;24.20;;;1.20;99.90;;;;;;4990295;28;20042;-48
2023/01/20 03:18:33;;;;;;;57.67;23.30;;;1.20;99.90;;;;;;4989322;28;20390;-49
2023/01/20 03:21:01;;;;;;;59.13;24.13;;;1.20;99.90;;;;;;4990060;28;20494;-50
2023/01/20 03:23:32;;;;;;;58.80;25.73;;;1.30;99.90;;;;;;4990763;28;20042;-50
2023/01/20 03:25:58;;;;;;;59.70;24.97;;;1.30;99.90;;;;;;5009799;23;20129;-54
2023/01/20 03:28:24;;;;;;;59.17;26.33;;;1.20;99.90;;;;;;5010488;28;20033;-53
2023/01/20 03:30:51;;;;;;;60.97;24.93;;;1.30;99.90;;;;;;5008503;28;20523;-54
2023/01/20 03:33:17;;;;;;;59.57;25.60;;;1.30;99.90;;;;;;5008964;28;20113;-55
2023/01/20 03:35:43;;;;;;;60.47;25.67;;;1.30;99.90;;;;;;5009780;28;20037;-55
2023/01/20 03:38:10;;;;;;;60.87;24.73;;;1.30;99.90;;;;;;5009905;28;20458;-55
2023/01/20 03:40:54;;;;;;;60.93;25.83;;;1.30;99.90;;;;;;5009068;28;20101;-54
2023/01/20 03:43:36;;;;;;;63.40;26.70;;;1.30;99.90;;;;;;5008833;28;20533;-50
2023/01/20 03:46:13;;;;;;;60.53;25.10;;;1.20;99.90;;;;;;5010149;28;20045;-53
2023/01/20 03:48:52;;;;;;;64.60;24.37;;;1.30;99.90;;;;;;5013175;28;20096;-51
2023/01/20 03:51:32;;;;;;;58.08;23.45;;;1.30;99.90;;;;;;5013391;28;20437;-54
2023/01/20 03:54:06;;;;;;;52.03;21.73;;;1.30;99.90;;;;;;5013349;28;20033;-54
2023/01/20 03:56:49;;;;;;;48.27;19.87;;;1.30;99.90;;;;;;5012992;28;20108;-51
2023/01/20 03:59:17;;;;;;;41.17;17.27;;;1.30;99.90;;;;;;5013759;28;20101;-54
2023/01/20 04:01:44;;;;;;;43.20;18.60;;;1.20;99.90;;;;;;5013025;28;20498;-53
2023/01/20 04:04:15;;;;;;;52.03;21.13;;;1.20;99.90;;;;;;5013033;28;20033;-52
2023/01/20 04:06:42;;;;;;;41.57;18.67;;;1.20;99.90;;;;;;5013021;28;20160;-55
2023/01/20 04:09:21;;;;;;;43.73;17.63;;;1.20;99.90;;;;;;5012397;28;20040;-54
2023/01/20 04:11:47;;;;;;;37.40;16.13;;;1.20;99.90;;;;;;5013589;28;20069;-54
2023/01/20 04:14:13;;;;;;;41.97;16.40;;;1.20;99.90;;;;;;5012866;28;20066;-53
2023/01/20 04:16:39;;;;;;;42.57;18.73;;;1.20;99.90;;;;;;5012664;28;20606;-52
2023/01/20 04:19:04;;;;;;;44.17;19.10;;;1.20;99.90;;;;;;5012590;28;20041;-56
2023/01/20 04:21:44;;;;;;;43.20;18.87;;;1.10;99.90;;;;;;5012912;28;20537;-51
2023/01/20 04:24:27;;;;;;;43.50;18.88;;;1.10;99.90;;;;;;5012315;28;20030;-53
2023/01/20 04:27:08;;;;;;;46.67;20.30;;;1.20;99.90;;;;;;4969298;28;20143;-53
2023/01/20 04:29:34;;;;;;;47.90;18.60;;;1.10;99.90;;;;;;5011581;28;20057;-53
2023/01/20 04:32:01;;;;;;;44.83;19.77;;;1.20;99.90;;;;;;5013019;28;20037;-56
2023/01/20 04:34:27;;;;;;;45.07;19.57;;;1.20;99.90;;;;;;5012358;28;20030;-53
2023/01/20 04:36:52;;;;;;;45.73;19.40;;;1.20;99.90;;;;;;5012744;28;20368;-54
2023/01/20 04:39:18;;;;;;;47.43;19.17;;;1.20;99.90;;;;;;5012847;28;20391;-53
2023/01/20 04:41:45;;;;;;;44.13;18.53;;;1.20;99.90;;;;;;5005240;28;20027;-54
2023/01/20 04:44:11;;;;;;;45.03;18.87;;;1.30;99.90;;;;;;4993687;28;20039;-54
2023/01/20 04:46:36;;;;;;;44.60;18.30;;;1.30;99.90;;;;;;4991905;28;20122;-54
2023/01/20 04:49:02;;;;;;;40.97;18.17;;;1.30;99.90;;;;;;4992213;28;20026;-54
2023/01/20 04:51:28;;;;;;;42.37;18.13;;;1.30;99.90;;;;;;4992916;28;20265;-54
2023/01/20 04:53:57;;;;;;;45.33;18.57;;;1.40;99.90;;;;;;4992804;28;20070;-55
2023/01/20 04:56:24;;;;;;;44.15;17.85;;;1.30;99.90;;;;;;4992834;28;20022;-54
2023/01/20 04:58:49;;;;;;;46.53;19.23;;;1.30;99.90;;;;;;4992951;28;20048;-54
2023/01/20 05:01:15;;;;;;;41.70;18.33;;;1.30;99.90;;;;;;4992668;28;20552;-54
2023/01/20 05:03:41;;;;;;;44.60;18.87;;;1.30;99.90;;;;;;4992651;28;20557;-54
2023/01/20 05:06:10;;;;;;;47.27;18.07;;;1.30;99.90;;;;;;4991981;28;20035;-52
2023/01/20 05:08:35;;;;;;;42.40;18.85;;;1.30;99.90;;;;;;4991602;28;20080;-53
2023/01/20 05:11:01;;;;;;;41.27;18.20;;;1.40;99.90;;;;;;4992883;28;20442;-56
2023/01/20 05:13:27;;;;;;;38.20;15.97;;;1.40;99.90;;;;;;4992349;28;20038;-52
2023/01/20 05:15:53;;;;;;;34.37;15.10;;;1.40;99.90;;;;;;4992136;28;20034;-54
2023/01/20 05:18:19;;;;;;;33.03;14.23;;;1.50;99.90;;;;;;4992292;28;20117;-53
2023/01/20 05:20:46;;;;;;;31.67;13.23;;;1.40;99.90;;;;;;4991814;28;20041;-54
2023/01/20 05:23:12;;;;;;;26.70;12.53;;;1.50;99.90;;;;;;4992401;28;20030;-54
2023/01/20 05:25:38;;;;;;;36.67;13.87;;;1.50;99.90;;;;;;4991387;28;20053;-52
2023/01/20 05:28:04;;;;;;;33.57;15.03;;;1.60;99.90;;;;;;4992397;28;20486;-53
2023/01/20 05:30:29;;;;;;;34.53;15.60;;;1.50;99.90;;;;;;4991808;28;20125;-52
2023/01/20 05:32:55;;;;;;;34.67;15.73;;;1.50;99.90;;;;;;4991767;28;20031;-54
2023/01/20 05:35:21;;;;;;;37.90;16.40;;;1.50;99.90;;;;;;4991072;28;20018;-56
2023/01/20 05:37:47;;;;;;;43.90;18.00;;;1.50;99.90;;;;;;4991943;28;20034;-54
2023/01/20 05:40:13;;;;;;;41.97;19.37;;;1.50;99.90;;;;;;4992476;28;20121;-51
2023/01/20 05:42:39;;;;;;;48.40;20.33;;;1.50;99.90;;;;;;4991766;28;20257;-53
2023/01/20 05:45:05;;;;;;;44.57;18.53;;;1.40;99.90;;;;;;4991395;28;20490;-54
2023/01/20 05:47:31;;;;;;;49.40;19.57;;;1.40;99.90;;;;;;4998850;28;20093;-53
2023/01/20 05:49:57;;;;;;;43.50;19.83;;;1.40;99.90;;;;;;5010281;28;20100;-51
2023/01/20 05:52:22;;;;;;;46.27;19.33;;;1.40;99.90;;;;;;5009500;28;20360;-51
2023/01/20 05:54:48;;;;;;;50.93;20.63;;;1.40;99.90;;;;;;5008994;28;20045;-54
2023/01/20 05:57:17;;;;;;;46.23;19.67;;;1.40;99.90;;;;;;5008616;28;20462;-52
2023/01/20 05:59:47;;;;;;;46.47;18.83;;;1.30;99.90;;;;;;5009848;28;20635;-51
2023/01/20 06:02:17;;;;;;;40.43;17.87;;;1.30;99.90;;;;;;5003701;28;20038;-55
2023/01/20 06:04:46;;;;;;;42.03;17.83;;;1.30;99.90;;;;;;5005512;28;20116;-53
2023/01/20 06:07:13;;;;;;;38.42;16.98;;;1.40;99.90;;;;;;4984684;28;20514;-56
2023/01/20 06:09:39;;;;;;;41.20;18.27;;;1.40;99.90;;;;;;5010151;28;20030;-57
2023/01/20 06:12:05;;;;;;;40.17;17.27;;;1.40;99.90;;;;;;5010683;28;20084;-53
2023/01/20 06:14:30;;;;;;;35.73;17.87;;;1.40;99.90;;;;;;5009205;28;20076;-51
2023/01/20 06:16:56;;;;;;;40.50;17.83;;;1.40;99.90;;;;;;5010077;28;20057;-51
2023/01/20 06:19:22;;;;;;;40.80;17.27;;;1.40;99.90;;;;;;5010474;28;20109;-54
2023/01/20 06:21:47;;;;;;;39.17;18.00;;;1.40;99.90;;;;;;5010294;28;20022;-54
2023/01/20 06:24:13;;;;;;;39.00;17.47;;;1.30;99.90;;;;;;5010124;28;20056;-53
2023/01/20 06:26:39;;;;;;;36.37;16.87;;;1.30;99.90;;;;;;5009838;28;20030;-54
2023/01/20 06:29:05;;;;;;;38.20;17.77;;;1.30;99.90;;;;;;5010264;28;20739;-54
2023/01/20 06:31:30;;;;;;;38.13;17.93;;;1.30;99.90;;;;;;4991664;28;20080;-54
2023/01/20 06:33:56;;;;;;;40.77;17.60;;;1.30;99.90;;;;;;5009964;28;20437;-55
2023/01/20 06:36:22;;;;;;;40.20;18.00;;;1.20;99.90;;;;;;5009647;28;20022;-54
2023/01/20 06:38:49;;;;;;;35.40;16.87;;;1.30;99.90;;;;;;5010201;28;20048;-52
2023/01/20 06:41:17;;;;;;;37.60;16.97;;;1.20;99.90;;;;;;5009835;28;20029;-54
2023/01/20 06:43:43;;;;;;;37.13;17.20;;;1.20;99.90;;;;;;5009900;28;20084;-55
2023/01/20 06:46:13;;;;;;;36.00;16.53;;;1.20;99.90;;;;;;5009074;28;20026;-54
2023/01/20 06:48:40;;;;;;;40.50;16.97;;;1.20;99.90;;;;;;5009769;28;20486;-54
2023/01/20 06:51:17;;;;;;;37.40;16.73;;;1.20;99.90;;;;;;5009894;28;20038;-54
2023/01/20 06:53:43;;;;;;;34.80;16.50;;;1.20;99.90;;;;;;5009848;28;20384;-53
2023/01/20 06:56:10;;;;;;;37.13;16.33;;;1.20;99.90;;;;;;5009805;28;20033;-52
2023/01/20 06:58:36;;;;;;;35.47;15.77;;;1.20;99.90;;;;;;5009974;28;20026;-54
2023/01/20 07:01:13;;;;;;;37.67;15.83;;;1.20;99.90;;;;;;5009020;28;20037;-53
2023/01/20 07:03:42;;;;;;;40.33;16.77;;;1.10;99.90;;;;;;5009712;28;20026;-52
2023/01/20 07:06:16;;;;;;;37.67;16.85;;;1.20;99.90;;;;;;4999065;28;20095;-53
2023/01/20 07:08:45;;;;;;;41.27;16.13;;;1.20;99.90;;;;;;4994959;28;20467;-51
2023/01/20 07:11:11;;;;;;;34.70;15.87;;;1.20;99.90;;;;;;4992667;28;20066;-52
2023/01/20 07:13:37;;;;;;;31.43;15.23;;;1.30;99.90;;;;;;4998086;28;20045;-54
2023/01/20 07:16:03;;;;;;;36.40;15.70;;;1.20;99.90;;;;;;4985932;28;20109;-55
2023/01/20 07:18:29;;;;;;;36.20;16.07;;;1.20;99.90;;;;;;4992153;28;20042;-52
2023/01/20 07:20:55;;;;;;;31.87;16.00;;;1.20;99.90;;;;;;4990883;28;20026;-54
2023/01/20 07:23:22;;;;;;;34.30;16.37;;;1.20;99.90;;;;;;4977266;28;20684;-55
2023/01/20 07:26:03;;;;;;;36.27;17.27;;;1.30;99.90;;;;;;5013159;28;20073;-55
2023/01/20 07:28:30;;;;;;;37.30;16.53;;;1.30;99.90;;;;;;5013075;28;20501;-53
2023/01/20 07:31:05;;;;;;;34.70;16.93;;;1.30;99.90;;;;;;4995943;28;20283;-55
2023/01/20 07:33:31;;;;;;;39.73;17.00;;;1.30;99.90;;;;;;4992345;28;20038;-54
2023/01/20 07:35:58;;;;;;;37.87;17.60;;;1.20;99.90;;;;;;4997714;28;20058;-54
2023/01/20 07:38:24;;;;;;;40.80;17.43;;;1.20;99.90;;;;;;4997643;28;20034;-53
2023/01/20 07:40:49;;;;;;;43.93;20.70;;;1.20;99.90;;;;;;4993965;28;20088;-53
2023/01/20 07:43:15;;;;;;;36.00;17.57;;;1.30;99.90;;;;;;4959968;28;20037;-53
2023/01/20 07:45:41;;;;;;;37.50;17.63;;;1.30;99.90;;;;;;4991920;28;20495;-52
2023/01/20 07:48:07;;;;;;;33.77;16.70;;;1.20;99.90;;;;;;4993159;28;20034;-49
2023/01/20 07:50:36;;;;;;;37.03;17.23;;;1.30;99.90;;;;;;4992887;28;20617;-51
2023/01/20 07:53:02;;;;;;;29.42;13.60;;;1.30;99.90;;;;;;4993640;28;20113;-52
2023/01/20 07:55:28;;;;;;;34.27;16.27;;;1.30;99.90;;;;;;4992781;28;20149;-53
2023/01/20 07:57:55;;;;;;;39.07;18.10;;;1.30;99.90;;;;;;4993059;28;20382;-54
2023/01/20 08:00:21;;;;;;;39.60;17.60;;;1.30;99.90;;;;;;4991824;28;20462;-54
2023/01/20 08:02:46;;;;;;;35.83;17.67;;;1.40;99.90;;;;;;4992782;28;20022;-53
2023/01/20 08:05:12;;;;;;;34.87;17.43;;;1.40;99.90;;;;;;4992535;28;20037;-53
2023/01/20 08:07:38;;;;;;;38.73;18.37;;;1.40;99.90;;;;;;4992815;28;20030;-56
2023/01/20 08:10:04;;;;;;;40.23;18.77;;;1.40;99.90;;;;;;4992845;28;20091;-52
2023/01/20 08:12:30;;;;;;;41.30;18.37;;;1.30;99.90;;;;;;4992853;28;20484;-54
2023/01/20 08:14:55;;;;;;;39.77;18.23;;;1.30;99.90;;;;;;4991163;28;20034;-55
2023/01/20 08:17:21;;;;;;;38.17;18.80;;;1.30;99.90;;;;;;4992763;28;20037;-53
2023/01/20 08:19:47;;;;;;;43.30;18.50;;;1.30;99.90;;;;;;4992149;28;20027;-55
2023/01/20 08:22:13;;;;;;;39.67;19.63;;;1.20;99.90;;;;;;4992588;28;20022;-55
2023/01/20 08:24:39;;;;;;;40.87;18.67;;;1.30;99.90;;;;;;4992083;28;20472;-52
2023/01/20 08:27:04;;;;;;;37.83;19.17;;;1.30;99.90;;;;;;4992344;28;20129;-54
2023/01/20 08:29:32;;;;;;;42.80;19.63;;;1.30;99.90;;;;;;4991374;28;20042;-54
2023/01/20 08:32:01;;;;;;;42.00;18.73;;;1.40;99.90;;;;;;4992111;28;20089;-56
2023/01/20 08:34:27;;;;;;;38.42;17.98;;;1.40;99.90;;;;;;4992005;28;20030;-53
2023/01/20 08:36:56;;;;;;;35.27;17.23;;;1.50;99.90;;;;;;4992326;28;20649;-55
2023/01/20 08:39:22;;;;;;;36.60;17.47;;;1.50;99.90;;;;;;4992492;28;20106;-54
2023/01/20 08:41:49;;;;;;;36.33;17.50;;;1.40;99.90;;;;;;4992013;28;20045;-56
2023/01/20 08:44:16;;;;;;;37.60;17.93;;;1.40;99.90;;;;;;4991816;28;20077;-51
2023/01/20 08:46:43;;;;;;;33.17;16.77;;;1.50;99.90;;;;;;4991018;28;20642;-53
2023/01/20 08:49:14;;;;;;;33.80;15.10;;;1.50;99.90;;;;;;4991999;28;20041;-54
2023/01/20 08:51:41;;;;;;;34.70;16.30;;;1.50;99.90;;;;;;4991773;28;20121;-56
2023/01/20 08:54:07;;;;;;;33.80;15.20;;;1.60;99.90;;;;;;4991662;28;20077;-54
2023/01/20 08:56:35;;;;;;;28.30;12.83;;;1.60;99.90;;;;;;4991363;28;20108;-51
2023/01/20 08:59:01;;;;;;;27.90;14.63;;;1.60;99.90;;;;;;4992087;28;20491;-53
2023/01/20 09:01:30;;;;;;;33.77;15.67;;;1.70;99.90;;;;;;4990180;28;20041;-52
2023/01/20 09:03:57;;;;;;;31.92;14.68;;;1.70;99.90;;;;;;4992494;28;20038;-55
2023/01/20 09:06:23;;;;;;;30.63;15.60;;;1.60;99.90;;;;;;4988497;28;20037;-51
2023/01/20 09:08:49;;;;;;;37.80;15.93;;;1.60;99.90;;;;;;4991716;28;20037;-51
2023/01/20 09:11:18;;;;;;;33.50;15.50;;;1.50;99.90;;;;;;4991949;28;20412;-51
2023/01/20 09:13:44;;;;;;;35.45;16.23;;;1.60;99.90;;;;;;4997467;28;20495;-51
2023/01/20 09:16:15;;;;;;;33.77;16.33;;;1.50;99.90;;;;;;4996741;28;20593;-51
2023/01/20 09:18:41;;;;;;;29.00;14.77;;;1.50;99.90;;;;;;4982906;28;20037;-53
2023/01/20 09:21:08;;;;;;;30.77;14.80;;;1.50;99.90;;;;;;4995142;28;20112;-51
2023/01/20 09:23:35;;;;;;;28.90;14.27;;;1.50;99.90;;;;;;4991184;28;20030;-51
2023/01/20 09:29:07;;;;;;;34.43;15.77;;;1.50;99.90;;;;;;4952025;29;20062;-50
2023/01/20 09:31:34;;;;;;;32.13;15.23;;;1.60;99.90;;;;;;4953888;29;20043;-52
2023/01/20 09:34:00;;;;;;;33.10;15.50;;;1.50;99.90;;;;;;4954004;29;20492;-46
2023/01/20 09:36:29;;;;;;;33.40;15.40;;;1.60;99.90;;;;;;4953934;28;20023;-49
2023/01/20 09:44:54;;;;;;;31.58;14.43;;;1.70;99.90;;;;;;4952791;28;20098;-50
2023/01/20 09:47:27;;;;;;;32.53;16.47;;;1.70;99.90;;;;;;4953713;28;20396;-48
2023/01/20 09:53:03;;;;;;;31.90;15.57;;;1.90;99.90;;;;;;4953709;29;20089;-49
2023/01/20 09:55:47;;;;;;;35.60;15.53;;;1.90;99.90;;;;;;4953419;29;20425;-50
2023/01/20 09:58:35;;;;;;;34.60;15.93;;;1.80;99.90;;;;;;4953360;28;20408;-49
2023/01/20 10:01:20;;;;;;;37.17;16.70;;;1.90;99.90;;;;;;4953565;29;20337;-47
2023/01/20 10:04:06;;;;;;;36.67;16.80;;;1.90;99.90;;;;;;4953161;29;20043;-51
2023/01/20 10:06:38;;;;;;;31.47;14.97;;;2.00;99.90;;;;;;4953220;28;20662;-49
2023/01/20 10:09:23;;;;;;;31.07;14.83;;;2.10;99.90;;;;;;4953230;29;20027;-47
2023/01/20 10:11:54;;;;;;;33.90;16.27;;;2.20;99.90;;;;;;4953248;29;20074;-46
2023/01/20 10:14:53;;;;;;;37.57;15.83;;;2.10;99.90;;;;;;4952888;29;20039;-48
2023/01/20 10:17:29;;;;;;;31.20;14.80;;;2.10;99.90;;;;;;4952801;28;20027;-46
2023/01/20 10:20:06;;;;;;;33.90;15.87;;;2.20;99.90;;;;;;4953193;29;20035;-47
2023/01/20 10:22:41;;;;;;;30.80;15.00;;;2.20;99.90;;;;;;4953055;29;20045;-48
2023/01/20 10:25:16;;;;;;;30.57;13.77;;;2.30;99.90;;;;;;4952769;29;20102;-48
2023/01/20 10:27:53;;;;;;;28.20;14.43;;;2.30;99.90;;;;;;4952312;28;20039;-51
2023/01/20 10:30:23;;;;;;;31.37;14.40;;;2.40;99.90;;;;;;4952797;29;20403;-49
2023/01/20 10:33:15;;;;;;;30.07;15.20;;;2.40;99.90;;;;;;4952849;29;20116;-50
2023/01/20 10:35:50;;;;;;;30.90;15.60;;;2.40;99.90;;;;;;4952678;29;20041;-48
2023/01/20 10:38:41;;;;;;;30.67;14.70;;;2.30;99.90;;;;;;4952292;28;20023;-51
2023/01/20 10:41:19;;;;;;;29.30;14.13;;;2.40;99.90;;;;;;4952775;29;20464;-47
2023/01/20 10:43:46;;;;;;;19.57;10.17;;;2.40;99.90;;;;;;4952516;29;20422;-45
2023/01/20 10:46:35;;;;;;;26.83;13.07;;;2.50;99.90;;;;;;4952435;28;20031;-46
2023/01/20 10:49:10;;;;;;;30.13;13.75;;;2.50;99.90;;;;;;4952955;29;20111;-46
2023/01/20 10:51:58;;;;;;;29.47;13.90;;;2.50;99.90;;;;;;4952578;29;20039;-48
2023/01/20 10:54:55;;;;;;;31.03;14.20;;;2.50;99.90;;;;;;4952214;29;20061;-49
2023/01/20 10:57:21;;;;;;;31.40;14.43;;;2.50;99.90;;;;;;4952242;28;20499;-48
2023/01/20 10:59:49;;;;;;;28.33;13.33;;;2.50;99.90;;;;;;4952435;29;20484;-46
2023/01/20 11:02:25;;;;;;;26.93;13.87;;;2.60;99.90;;;;;;4952500;29;20106;-51
2023/01/20 11:05:00;;;;;;;28.00;13.17;;;2.60;99.90;;;;;;4952303;29;20131;-46
2023/01/20 11:07:28;;;;;;;30.53;16.03;;;2.60;99.90;;;;;;4952179;28;20039;-52
2023/01/20 11:09:54;;;;;;;28.17;14.00;;;2.60;99.90;;;;;;4952652;29;20037;-47
2023/01/20 11:12:27;;;;;;;24.80;13.40;;;2.70;99.90;;;;;;4952508;29;20047;-47
2023/01/20 11:14:54;;;;;;;27.90;13.63;;;2.70;99.90;;;;;;4952048;29;20131;-46
2023/01/20 11:17:20;;;;;;;26.80;12.60;;;2.70;99.90;;;;;;4952044;28;20027;-46
2023/01/20 11:19:52;;;;;;;28.43;14.10;;;2.80;99.90;;;;;;4952322;29;20034;-50
2023/01/20 11:22:32;;;;;;;25.17;13.13;;;2.80;99.90;;;;;;4952217;29;20031;-46
2023/01/20 11:24:59;;;;;;;25.08;13.98;;;2.80;99.90;;;;;;4952122;29;20036;-47
2023/01/20 11:27:35;;;;;;;24.63;12.17;;;2.70;99.90;;;;;;4951831;28;20054;-50
2023/01/20 11:30:07;;;;;;;24.73;11.80;;;2.80;99.90;;;;;;4952060;29;20400;-51
2023/01/20 11:32:40;;;;;;;26.73;12.33;;;2.80;99.90;;;;;;4952176;29;20046;-44
2023/01/20 11:35:24;;;;;;;23.47;11.53;;;2.90;99.90;;;;;;4952067;29;20042;-49
2023/01/20 11:37:51;;;;;;;23.87;10.93;;;2.80;99.90;;;;;;4951893;28;20480;-49
2023/01/20 11:40:26;;;;;;;22.17;11.63;;;2.90;99.90;;;;;;4951936;29;20031;-47
2023/01/20 11:42:53;;;;;;;24.43;12.10;;;3.00;99.90;;;;;;4952093;29;20027;-49
2023/01/20 11:45:25;;;;;;;23.00;11.87;;;2.90;99.90;;;;;;4951958;29;20071;-48
2023/01/20 11:48:18;;;;;;;25.63;11.93;;;2.90;99.90;;;;;;4952195;28;20027;-44
2023/01/20 11:50:49;;;;;;;20.80;10.67;;;2.90;99.90;;;;;;4951843;29;20543;-48
2023/01/20 11:53:23;;;;;;;24.23;11.93;;;2.90;99.90;;;;;;4952037;29;20038;-46
2023/01/20 11:55:57;;;;;;;24.13;11.20;;;2.90;99.90;;;;;;4952154;29;20042;-45
2023/01/20 11:58:47;;;;;;;22.47;9.93;;;2.90;99.90;;;;;;4951766;28;20031;-44
2023/01/20 12:01:24;;;;;;;25.00;11.13;;;2.80;99.90;;;;;;4951973;29;20028;-44
2023/01/20 12:04:13;;;;;;;53.97;21.97;;;2.80;99.90;;;;;;4951933;29;20039;-46
2023/01/20 12:06:57;;;;;;;52.88;25.15;;;2.80;99.90;;;;;;4951657;28;20050;-45
2023/01/20 12:09:30;;;;;;;52.67;22.27;;;2.90;99.90;;;;;;4955361;29;20039;-46
2023/01/20 12:12:03;;;;;;;39.07;19.80;;;2.80;99.90;;;;;;4955412;29;20039;-45
2023/01/20 12:14:56;;;;;;;26.93;15.50;;;2.80;99.90;;;;;;4955164;29;20046;-45
2023/01/20 12:17:50;;;;;;;19.50;11.43;;;2.90;99.90;;;;;;4955059;28;20038;-45
2023/01/20 12:20:35;;;;;;;19.30;10.47;;;2.90;99.90;;;;;;4955254;29;20032;-45
2023/01/20 12:23:20;;;;;;;17.77;9.40;;;2.80;99.90;;;;;;4955178;29;20027;-45
2023/01/20 12:25:59;;;;;;;18.93;9.57;;;2.70;99.90;;;;;;4955117;29;20443;-44
2023/01/20 12:28:39;;;;;;;21.63;9.27;;;2.70;99.90;;;;;;4954804;28;20098;-46
2023/01/20 12:31:08;;;;;;;16.35;8.73;;;2.70;99.90;;;;;;4955249;29;20032;-45
2023/01/20 12:33:37;;;;;;;16.85;8.55;;;2.70;99.90;;;;;;4954908;29;20472;-45
2023/01/20 12:36:16;;;;;;;19.27;8.90;;;2.70;99.90;;;;;;4955083;29;20122;-45
2023/01/20 12:38:52;;;;;;;19.52;8.82;;;2.70;99.90;;;;;;4954876;29;20468;-45
2023/01/20 12:41:56;;;;;;;24.10;10.90;;;2.70;99.90;;;;;;4955031;29;20086;-47
2023/01/20 12:44:42;;;;;;;26.13;13.63;;;2.70;99.90;;;;;;4954746;29;20030;-46
2023/01/20 12:47:49;;;;;;;20.13;11.17;;;2.70;99.90;;;;;;4954424;28;20041;-51
2023/01/20 12:50:43;;;;;;;14.23;8.17;;;2.70;99.90;;;;;;4933063;29;20051;-47
2023/01/20 12:53:12;;;;;;;20.03;9.17;;;2.70;99.90;;;;;;4954560;29;20034;-47
2023/01/20 12:55:55;;;;;;;19.27;10.35;;;2.70;99.90;;;;;;4954441;29;20039;-48
2023/01/20 12:58:34;;;;;;;19.37;8.57;;;2.70;99.90;;;;;;4954218;28;20027;-46
2023/01/20 13:01:15;;;;;;;18.65;9.35;;;2.70;99.90;;;;;;4954636;29;20031;-46
2023/01/20 13:03:44;;;;;;;15.50;7.80;;;2.60;99.90;;;;;;4954135;29;20046;-46
2023/01/20 13:06:31;;;;;;;17.47;9.30;;;2.70;99.90;;;;;;4954351;28;20393;-47
2023/01/20 13:09:43;;;;;;;17.03;8.37;;;2.70;99.90;;;;;;4954401;29;20423;-50
2023/01/20 13:12:33;;;;;;;15.00;7.83;;;2.80;99.90;;;;;;4857468;29;20635;-46